sensor_id;sensor_type;location;lat;lon;timestamp;P1;durP1;ratioP1;P2;durP2;ratioP2
67140;SDS011;54058;52.010;5.546;2023-02-28T00:01:20;10.50;;;4.32;;
67140;SDS011;54058;52.010;5.546;2023-02-28T00:03:46;5.18;;;3.55;;
67140;SDS011;54058;52.010;5.546;2023-02-28T00:06:12;7.60;;;3.63;;
67140;SDS011;54058;52.010;5.546;2023-02-28T00:08:37;6.93;;;3.90;;
67140;SDS011;54058;52.010;5.546;2023-02-28T00:11:08;6.35;;;3.30;;
67140;SDS011;54058;52.010;5.546;2023-02-28T00:13:35;8.98;;;3.25;;
67140;SDS011;54058;52.010;5.546;2023-02-28T00:16:03;5.35;;;3.42;;
67140;SDS011;54058;52.010;5.546;2023-02-28T00:18:31;8.73;;;3.58;;
67140;SDS011;54058;52.010;5.546;2023-02-28T00:20:58;5.72;;;3.30;;
67140;SDS011;54058;52.010;5.546;2023-02-28T00:23:24;9.60;;;4.13;;
67140;SDS011;54058;52.010;5.546;2023-02-28T00:25:51;5.75;;;3.33;;
67140;SDS011;54058;52.010;5.546;2023-02-28T00:28:17;8.25;;;3.50;;
67140;SDS011;54058;52.010;5.546;2023-02-28T00:30:43;7.18;;;3.83;;
67140;SDS011;54058;52.010;5.546;2023-02-28T00:33:08;7.43;;;3.28;;
67140;SDS011;54058;52.010;5.546;2023-02-28T00:35:34;7.43;;;3.60;;
67140;SDS011;54058;52.010;5.546;2023-02-28T00:38:00;5.55;;;3.72;;
67140;SDS011;54058;52.010;5.546;2023-02-28T00:40:26;5.88;;;3.50;;
67140;SDS011;54058;52.010;5.546;2023-02-28T00:42:52;7.60;;;3.78;;
67140;SDS011;54058;52.010;5.546;2023-02-28T00:45:17;5.55;;;3.40;;
67140;SDS011;54058;52.010;5.546;2023-02-28T00:47:43;6.70;;;3.55;;
67140;SDS011;54058;52.010;5.546;2023-02-28T00:52:37;10.50;;;3.35;;
67140;SDS011;54058;52.010;5.546;2023-02-28T00:55:03;6.05;;;3.25;;
67140;SDS011;54058;52.010;5.546;2023-02-28T00:57:29;7.45;;;3.47;;
67140;SDS011;54058;52.010;5.546;2023-02-28T00:59:55;8.43;;;3.53;;
67140;SDS011;54058;52.010;5.546;2023-02-28T01:02:21;5.28;;;3.28;;
67140;SDS011;54058;52.010;5.546;2023-02-28T01:04:47;3.90;;;3.07;;
67140;SDS011;54058;52.010;5.546;2023-02-28T01:07:13;6.80;;;3.33;;
67140;SDS011;54058;52.010;5.546;2023-02-28T01:09:39;5.78;;;3.47;;
67140;SDS011;54058;52.010;5.546;2023-02-28T01:12:06;6.35;;;3.60;;
67140;SDS011;54058;52.010;5.546;2023-02-28T01:14:32;5.50;;;3.28;;
67140;SDS011;54058;52.010;5.546;2023-02-28T01:16:59;7.35;;;3.80;;
67140;SDS011;54058;52.010;5.546;2023-02-28T01:19:25;6.85;;;3.28;;
67140;SDS011;54058;52.010;5.546;2023-02-28T01:21:50;11.57;;;3.22;;
67140;SDS011;54058;52.010;5.546;2023-02-28T01:24:16;6.85;;;3.35;;
67140;SDS011;54058;52.010;5.546;2023-02-28T01:26:42;6.28;;;3.30;;
67140;SDS011;54058;52.010;5.546;2023-02-28T01:29:07;7.55;;;4.20;;
67140;SDS011;54058;52.010;5.546;2023-02-28T01:31:33;6.05;;;3.40;;
67140;SDS011;54058;52.010;5.546;2023-02-28T01:33:59;9.60;;;3.10;;
67140;SDS011;54058;52.010;5.546;2023-02-28T01:36:25;5.55;;;3.15;;
67140;SDS011;54058;52.010;5.546;2023-02-28T01:38:51;7.68;;;3.20;;
67140;SDS011;54058;52.010;5.546;2023-02-28T01:41:21;7.88;;;3.58;;
67140;SDS011;54058;52.010;5.546;2023-02-28T01:46:29;7.55;;;3.38;;
67140;SDS011;54058;52.010;5.546;2023-02-28T01:51:41;4.03;;;3.00;;
67140;SDS011;54058;52.010;5.546;2023-02-28T01:54:26;6.78;;;3.78;;
67140;SDS011;54058;52.010;5.546;2023-02-28T01:56:55;7.43;;;3.40;;
67140;SDS011;54058;52.010;5.546;2023-02-28T02:02:05;4.80;;;3.10;;
67140;SDS011;54058;52.010;5.546;2023-02-28T02:04:37;3.70;;;2.70;;
67140;SDS011;54058;52.010;5.546;2023-02-28T02:07:06;7.80;;;3.28;;
67140;SDS011;54058;52.010;5.546;2023-02-28T02:09:32;5.60;;;3.40;;
67140;SDS011;54058;52.010;5.546;2023-02-28T02:11:58;6.40;;;3.63;;
67140;SDS011;54058;52.010;5.546;2023-02-28T02:14:40;6.72;;;3.30;;
67140;SDS011;54058;52.010;5.546;2023-02-28T02:25:56;5.15;;;3.53;;
67140;SDS011;54058;52.010;5.546;2023-02-28T02:31:49;6.70;;;3.03;;
67140;SDS011;54058;52.010;5.546;2023-02-28T02:34:45;4.00;;;2.50;;
67140;SDS011;54058;52.010;5.546;2023-02-28T02:37:27;3.88;;;2.30;;
67140;SDS011;54058;52.010;5.546;2023-02-28T02:40:10;8.30;;;3.40;;
67140;SDS011;54058;52.010;5.546;2023-02-28T02:42:44;5.60;;;2.90;;
67140;SDS011;54058;52.010;5.546;2023-02-28T02:45:17;4.75;;;3.10;;
67140;SDS011;54058;52.010;5.546;2023-02-28T02:47:52;4.90;;;2.97;;
67140;SDS011;54058;52.010;5.546;2023-02-28T02:50:23;6.93;;;2.90;;
67140;SDS011;54058;52.010;5.546;2023-02-28T02:52:55;6.00;;;3.72;;
67140;SDS011;54058;52.010;5.546;2023-02-28T02:55:24;3.33;;;2.55;;
67140;SDS011;54058;52.010;5.546;2023-02-28T02:57:56;3.85;;;2.72;;
67140;SDS011;54058;52.010;5.546;2023-02-28T03:00:26;7.90;;;2.97;;
67140;SDS011;54058;52.010;5.546;2023-02-28T03:02:56;6.10;;;3.10;;
67140;SDS011;54058;52.010;5.546;2023-02-28T03:05:26;4.00;;;2.97;;
67140;SDS011;54058;52.010;5.546;2023-02-28T03:07:55;7.25;;;2.95;;
67140;SDS011;54058;52.010;5.546;2023-02-28T03:10:31;9.05;;;3.33;;
67140;SDS011;54058;52.010;5.546;2023-02-28T03:22:01;4.40;;;2.83;;
67140;SDS011;54058;52.010;5.546;2023-02-28T03:24:34;5.47;;;2.95;;
67140;SDS011;54058;52.010;5.546;2023-02-28T03:27:10;4.70;;;2.88;;
67140;SDS011;54058;52.010;5.546;2023-02-28T03:29:43;5.78;;;2.80;;
67140;SDS011;54058;52.010;5.546;2023-02-28T03:32:23;4.13;;;3.00;;
67140;SDS011;54058;52.010;5.546;2023-02-28T03:37:53;4.13;;;3.03;;
67140;SDS011;54058;52.010;5.546;2023-02-28T03:40:30;5.65;;;2.80;;
67140;SDS011;54058;52.010;5.546;2023-02-28T03:43:07;6.75;;;3.00;;
67140;SDS011;54058;52.010;5.546;2023-02-28T03:45:38;6.32;;;3.00;;
67140;SDS011;54058;52.010;5.546;2023-02-28T03:48:12;5.15;;;2.83;;
67140;SDS011;54058;52.010;5.546;2023-02-28T03:50:40;6.43;;;2.92;;
67140;SDS011;54058;52.010;5.546;2023-02-28T03:55:45;3.47;;;2.90;;
67140;SDS011;54058;52.010;5.546;2023-02-28T04:01:07;5.25;;;2.83;;
67140;SDS011;54058;52.010;5.546;2023-02-28T04:03:49;6.25;;;3.20;;
67140;SDS011;54058;52.010;5.546;2023-02-28T04:08:43;5.82;;;2.55;;
67140;SDS011;54058;52.010;5.546;2023-02-28T04:13:46;5.95;;;3.42;;
67140;SDS011;54058;52.010;5.546;2023-02-28T04:16:11;6.82;;;3.10;;
67140;SDS011;54058;52.010;5.546;2023-02-28T04:18:40;4.70;;;2.70;;
67140;SDS011;54058;52.010;5.546;2023-02-28T04:21:11;5.75;;;2.97;;
67140;SDS011;54058;52.010;5.546;2023-02-28T04:23:36;7.05;;;2.53;;
67140;SDS011;54058;52.010;5.546;2023-02-28T04:26:02;5.93;;;2.72;;
67140;SDS011;54058;52.010;5.546;2023-02-28T04:28:28;5.38;;;2.88;;
67140;SDS011;54058;52.010;5.546;2023-02-28T04:30:59;3.67;;;2.25;;
67140;SDS011;54058;52.010;5.546;2023-02-28T04:33:29;6.20;;;2.55;;
67140;SDS011;54058;52.010;5.546;2023-02-28T04:38:27;6.63;;;2.17;;
67140;SDS011;54058;52.010;5.546;2023-02-28T04:40:53;4.55;;;2.30;;
67140;SDS011;54058;52.010;5.546;2023-02-28T04:43:22;5.57;;;2.30;;
67140;SDS011;54058;52.010;5.546;2023-02-28T04:45:48;2.42;;;1.88;;
67140;SDS011;54058;52.010;5.546;2023-02-28T04:48:13;4.25;;;1.98;;
67140;SDS011;54058;52.010;5.546;2023-02-28T04:50:39;3.40;;;1.95;;
67140;SDS011;54058;52.010;5.546;2023-02-28T04:53:04;4.90;;;1.90;;
67140;SDS011;54058;52.010;5.546;2023-02-28T04:55:30;8.30;;;2.17;;
67140;SDS011;54058;52.010;5.546;2023-02-28T04:57:56;4.30;;;1.80;;
67140;SDS011;54058;52.010;5.546;2023-02-28T05:00:21;4.15;;;2.05;;
67140;SDS011;54058;52.010;5.546;2023-02-28T05:02:47;2.92;;;2.22;;
67140;SDS011;54058;52.010;5.546;2023-02-28T05:05:12;2.50;;;1.80;;
67140;SDS011;54058;52.010;5.546;2023-02-28T05:07:43;3.22;;;1.98;;
67140;SDS011;54058;52.010;5.546;2023-02-28T05:10:09;4.28;;;2.42;;
67140;SDS011;54058;52.010;5.546;2023-02-28T05:12:35;4.65;;;2.38;;
67140;SDS011;54058;52.010;5.546;2023-02-28T05:15:01;2.53;;;1.70;;
67140;SDS011;54058;52.010;5.546;2023-02-28T05:17:27;3.65;;;2.05;;
67140;SDS011;54058;52.010;5.546;2023-02-28T05:19:53;6.25;;;2.50;;
67140;SDS011;54058;52.010;5.546;2023-02-28T05:22:18;3.08;;;1.98;;
67140;SDS011;54058;52.010;5.546;2023-02-28T05:24:44;5.20;;;2.40;;
67140;SDS011;54058;52.010;5.546;2023-02-28T05:27:10;2.25;;;2.05;;
67140;SDS011;54058;52.010;5.546;2023-02-28T05:29:36;4.78;;;2.20;;
67140;SDS011;54058;52.010;5.546;2023-02-28T05:32:07;4.78;;;2.20;;
67140;SDS011;54058;52.010;5.546;2023-02-28T05:34:34;3.78;;;2.65;;
67140;SDS011;54058;52.010;5.546;2023-02-28T05:37:00;4.78;;;2.10;;
67140;SDS011;54058;52.010;5.546;2023-02-28T05:39:26;3.35;;;1.90;;
67140;SDS011;54058;52.010;5.546;2023-02-28T05:41:52;3.58;;;2.05;;
67140;SDS011;54058;52.010;5.546;2023-02-28T05:44:17;2.65;;;2.10;;
67140;SDS011;54058;52.010;5.546;2023-02-28T05:46:43;2.53;;;2.05;;
67140;SDS011;54058;52.010;5.546;2023-02-28T05:49:08;2.25;;;2.00;;
67140;SDS011;54058;52.010;5.546;2023-02-28T05:51:34;3.58;;;1.98;;
67140;SDS011;54058;52.010;5.546;2023-02-28T05:54:01;2.58;;;2.25;;
67140;SDS011;54058;52.010;5.546;2023-02-28T05:56:27;5.13;;;2.25;;
67140;SDS011;54058;52.010;5.546;2023-02-28T05:58:53;3.47;;;2.00;;
67140;SDS011;54058;52.010;5.546;2023-02-28T06:01:38;3.65;;;2.25;;
67140;SDS011;54058;52.010;5.546;2023-02-28T06:04:16;3.83;;;2.25;;
67140;SDS011;54058;52.010;5.546;2023-02-28T06:06:47;3.83;;;2.40;;
67140;SDS011;54058;52.010;5.546;2023-02-28T06:09:14;4.63;;;2.30;;
67140;SDS011;54058;52.010;5.546;2023-02-28T06:11:39;3.78;;;2.38;;
67140;SDS011;54058;52.010;5.546;2023-02-28T06:14:06;4.18;;;2.20;;
67140;SDS011;54058;52.010;5.546;2023-02-28T06:16:33;4.90;;;2.08;;
67140;SDS011;54058;52.010;5.546;2023-02-28T06:19:00;2.90;;;2.22;;
67140;SDS011;54058;52.010;5.546;2023-02-28T06:21:27;2.50;;;2.10;;
67140;SDS011;54058;52.010;5.546;2023-02-28T06:23:53;3.45;;;2.72;;
67140;SDS011;54058;52.010;5.546;2023-02-28T06:26:20;4.45;;;2.40;;
67140;SDS011;54058;52.010;5.546;2023-02-28T06:28:46;3.50;;;2.10;;
67140;SDS011;54058;52.010;5.546;2023-02-28T06:31:12;3.13;;;2.10;;
67140;SDS011;54058;52.010;5.546;2023-02-28T06:33:39;5.97;;;2.60;;
67140;SDS011;54058;52.010;5.546;2023-02-28T06:36:06;3.78;;;2.10;;
67140;SDS011;54058;52.010;5.546;2023-02-28T06:41:00;4.43;;;2.40;;
67140;SDS011;54058;52.010;5.546;2023-02-28T06:43:31;3.63;;;2.20;;
67140;SDS011;54058;52.010;5.546;2023-02-28T06:45:59;3.03;;;2.13;;
67140;SDS011;54058;52.010;5.546;2023-02-28T06:48:26;2.58;;;2.15;;
67140;SDS011;54058;52.010;5.546;2023-02-28T06:51:01;3.00;;;2.40;;
67140;SDS011;54058;52.010;5.546;2023-02-28T06:53:28;4.28;;;2.38;;
67140;SDS011;54058;52.010;5.546;2023-02-28T06:55:54;4.15;;;2.20;;
67140;SDS011;54058;52.010;5.546;2023-02-28T06:58:19;2.53;;;2.33;;
67140;SDS011;54058;52.010;5.546;2023-02-28T07:00:46;3.03;;;2.38;;
67140;SDS011;54058;52.010;5.546;2023-02-28T07:03:16;2.70;;;2.35;;
67140;SDS011;54058;52.010;5.546;2023-02-28T07:05:42;4.18;;;2.45;;
67140;SDS011;54058;52.010;5.546;2023-02-28T07:08:08;2.30;;;2.10;;
67140;SDS011;54058;52.010;5.546;2023-02-28T07:10:34;3.53;;;2.60;;
67140;SDS011;54058;52.010;5.546;2023-02-28T07:13:03;3.70;;;2.88;;
67140;SDS011;54058;52.010;5.546;2023-02-28T07:15:29;4.07;;;2.63;;
67140;SDS011;54058;52.010;5.546;2023-02-28T07:17:55;3.20;;;2.20;;
67140;SDS011;54058;52.010;5.546;2023-02-28T07:20:21;4.32;;;2.60;;
67140;SDS011;54058;52.010;5.546;2023-02-28T07:22:48;3.75;;;2.67;;
67140;SDS011;54058;52.010;5.546;2023-02-28T07:25:20;3.55;;;2.47;;
67140;SDS011;54058;52.010;5.546;2023-02-28T07:27:46;12.50;;;2.50;;
67140;SDS011;54058;52.010;5.546;2023-02-28T07:30:12;4.18;;;2.38;;
67140;SDS011;54058;52.010;5.546;2023-02-28T07:32:38;4.50;;;2.60;;
67140;SDS011;54058;52.010;5.546;2023-02-28T07:35:04;4.35;;;2.80;;
67140;SDS011;54058;52.010;5.546;2023-02-28T07:37:30;3.35;;;2.28;;
67140;SDS011;54058;52.010;5.546;2023-02-28T07:40:04;8.23;;;2.75;;
67140;SDS011;54058;52.010;5.546;2023-02-28T07:42:33;5.47;;;2.83;;
67140;SDS011;54058;52.010;5.546;2023-02-28T07:44:59;7.70;;;3.63;;
67140;SDS011;54058;52.010;5.546;2023-02-28T07:47:25;8.95;;;3.20;;
67140;SDS011;54058;52.010;5.546;2023-02-28T07:49:51;2.78;;;2.47;;
67140;SDS011;54058;52.010;5.546;2023-02-28T07:52:17;6.18;;;3.08;;
67140;SDS011;54058;52.010;5.546;2023-02-28T07:54:43;7.38;;;2.67;;
67140;SDS011;54058;52.010;5.546;2023-02-28T07:57:08;3.80;;;2.50;;
67140;SDS011;54058;52.010;5.546;2023-02-28T07:59:34;3.03;;;2.60;;
67140;SDS011;54058;52.010;5.546;2023-02-28T08:02:00;4.90;;;2.45;;
67140;SDS011;54058;52.010;5.546;2023-02-28T08:04:25;9.80;;;2.60;;
67140;SDS011;54058;52.010;5.546;2023-02-28T08:06:51;5.07;;;2.67;;
67140;SDS011;54058;52.010;5.546;2023-02-28T08:09:18;7.70;;;3.00;;
67140;SDS011;54058;52.010;5.546;2023-02-28T08:11:44;5.20;;;2.60;;
67140;SDS011;54058;52.010;5.546;2023-02-28T08:14:09;8.73;;;2.58;;
67140;SDS011;54058;52.010;5.546;2023-02-28T08:16:35;3.15;;;2.45;;
67140;SDS011;54058;52.010;5.546;2023-02-28T08:19:01;9.13;;;2.40;;
67140;SDS011;54058;52.010;5.546;2023-02-28T08:21:26;5.63;;;2.35;;
67140;SDS011;54058;52.010;5.546;2023-02-28T08:23:52;2.63;;;1.88;;
67140;SDS011;54058;52.010;5.546;2023-02-28T08:26:18;5.78;;;2.15;;
67140;SDS011;54058;52.010;5.546;2023-02-28T08:28:44;2.85;;;1.92;;
67140;SDS011;54058;52.010;5.546;2023-02-28T08:31:11;4.60;;;1.70;;
67140;SDS011;54058;52.010;5.546;2023-02-28T08:33:39;6.78;;;1.95;;
67140;SDS011;54058;52.010;5.546;2023-02-28T08:36:06;4.18;;;2.28;;
67140;SDS011;54058;52.010;5.546;2023-02-28T08:38:33;4.15;;;2.15;;
67140;SDS011;54058;52.010;5.546;2023-02-28T08:41:00;2.73;;;1.97;;
67140;SDS011;54058;52.010;5.546;2023-02-28T08:43:28;3.45;;;1.92;;
67140;SDS011;54058;52.010;5.546;2023-02-28T08:45:54;13.80;;;1.90;;
67140;SDS011;54058;52.010;5.546;2023-02-28T08:50:58;1.48;;;1.30;;
67140;SDS011;54058;52.010;5.546;2023-02-28T08:53:24;2.38;;;1.45;;
67140;SDS011;54058;52.010;5.546;2023-02-28T08:56:01;3.58;;;1.20;;
67140;SDS011;54058;52.010;5.546;2023-02-28T09:00:54;2.42;;;1.40;;
67140;SDS011;54058;52.010;5.546;2023-02-28T09:03:20;1.90;;;1.10;;
67140;SDS011;54058;52.010;5.546;2023-02-28T09:05:56;1.30;;;1.20;;
67140;SDS011;54058;52.010;5.546;2023-02-28T09:08:24;2.28;;;1.10;;
67140;SDS011;54058;52.010;5.546;2023-02-28T09:10:51;2.95;;;1.20;;
67140;SDS011;54058;52.010;5.546;2023-02-28T09:13:18;2.00;;;1.42;;
67140;SDS011;54058;52.010;5.546;2023-02-28T09:15:43;3.20;;;1.35;;
67140;SDS011;54058;52.010;5.546;2023-02-28T09:18:10;2.17;;;1.15;;
67140;SDS011;54058;52.010;5.546;2023-02-28T09:20:39;3.83;;;1.35;;
67140;SDS011;54058;52.010;5.546;2023-02-28T09:23:06;2.17;;;1.40;;
67140;SDS011;54058;52.010;5.546;2023-02-28T09:25:33;2.03;;;1.40;;
67140;SDS011;54058;52.010;5.546;2023-02-28T09:30:26;1.40;;;1.30;;
67140;SDS011;54058;52.010;5.546;2023-02-28T09:32:52;1.95;;;1.10;;
67140;SDS011;54058;52.010;5.546;2023-02-28T09:35:19;2.78;;;1.23;;
67140;SDS011;54058;52.010;5.546;2023-02-28T09:37:49;6.35;;;1.33;;
67140;SDS011;54058;52.010;5.546;2023-02-28T09:40:16;3.05;;;1.48;;
67140;SDS011;54058;52.010;5.546;2023-02-28T09:42:45;2.70;;;1.27;;
67140;SDS011;54058;52.010;5.546;2023-02-28T09:45:31;1.20;;;1.10;;
67140;SDS011;54058;52.010;5.546;2023-02-28T09:48:03;3.42;;;1.15;;
67140;SDS011;54058;52.010;5.546;2023-02-28T09:50:36;1.23;;;1.13;;
67140;SDS011;54058;52.010;5.546;2023-02-28T09:53:11;1.00;;;0.90;;
67140;SDS011;54058;52.010;5.546;2023-02-28T09:56:03;1.80;;;1.05;;
67140;SDS011;54058;52.010;5.546;2023-02-28T10:01:48;1.75;;;1.05;;
67140;SDS011;54058;52.010;5.546;2023-02-28T10:04:25;3.95;;;1.30;;
67140;SDS011;54058;52.010;5.546;2023-02-28T10:07:37;1.42;;;1.33;;
67140;SDS011;54058;52.010;5.546;2023-02-28T10:10:40;1.42;;;1.25;;
67140;SDS011;54058;52.010;5.546;2023-02-28T10:15:47;4.88;;;1.40;;
67140;SDS011;54058;52.010;5.546;2023-02-28T10:18:16;3.35;;;1.95;;
67140;SDS011;54058;52.010;5.546;2023-02-28T10:20:49;3.05;;;2.47;;
67140;SDS011;54058;52.010;5.546;2023-02-28T10:23:20;2.30;;;1.30;;
67140;SDS011;54058;52.010;5.546;2023-02-28T10:26:00;1.23;;;1.10;;
67140;SDS011;54058;52.010;5.546;2023-02-28T10:28:30;3.30;;;1.50;;
67140;SDS011;54058;52.010;5.546;2023-02-28T10:30:56;1.33;;;1.20;;
67140;SDS011;54058;52.010;5.546;2023-02-28T10:35:50;2.33;;;1.35;;
67140;SDS011;54058;52.010;5.546;2023-02-28T10:38:22;1.30;;;1.13;;
67140;SDS011;54058;52.010;5.546;2023-02-28T10:41:14;1.85;;;1.20;;
67140;SDS011;54058;52.010;5.546;2023-02-28T10:43:53;5.20;;;1.20;;
67140;SDS011;54058;52.010;5.546;2023-02-28T10:46:44;2.30;;;1.23;;
67140;SDS011;54058;52.010;5.546;2023-02-28T10:49:17;1.60;;;1.50;;
67140;SDS011;54058;52.010;5.546;2023-02-28T10:51:52;5.63;;;1.65;;
67140;SDS011;54058;52.010;5.546;2023-02-28T10:54:24;1.90;;;1.10;;
67140;SDS011;54058;52.010;5.546;2023-02-28T11:00:06;1.40;;;1.30;;
67140;SDS011;54058;52.010;5.546;2023-02-28T11:02:46;2.35;;;1.38;;
67140;SDS011;54058;52.010;5.546;2023-02-28T11:05:29;1.55;;;1.40;;
67140;SDS011;54058;52.010;5.546;2023-02-28T11:08:06;2.60;;;1.40;;
67140;SDS011;54058;52.010;5.546;2023-02-28T11:10:38;2.15;;;1.70;;
67140;SDS011;54058;52.010;5.546;2023-02-28T11:13:04;3.88;;;1.40;;
67140;SDS011;54058;52.010;5.546;2023-02-28T11:15:31;2.05;;;1.40;;
67140;SDS011;54058;52.010;5.546;2023-02-28T11:17:59;2.03;;;1.40;;
67140;SDS011;54058;52.010;5.546;2023-02-28T11:20:37;1.75;;;1.25;;
67140;SDS011;54058;52.010;5.546;2023-02-28T11:23:04;2.97;;;1.47;;
67140;SDS011;54058;52.010;5.546;2023-02-28T11:25:36;7.38;;;1.50;;
67140;SDS011;54058;52.010;5.546;2023-02-28T11:28:05;1.35;;;1.25;;
67140;SDS011;54058;52.010;5.546;2023-02-28T11:30:49;1.73;;;1.13;;
67140;SDS011;54058;52.010;5.546;2023-02-28T11:33:44;1.83;;;1.20;;
67140;SDS011;54058;52.010;5.546;2023-02-28T11:36:33;1.52;;;1.42;;
67140;SDS011;54058;52.010;5.546;2023-02-28T11:38:59;2.15;;;1.35;;
67140;SDS011;54058;52.010;5.546;2023-02-28T11:47:18;2.60;;;1.30;;
67140;SDS011;54058;52.010;5.546;2023-02-28T12:00:31;2.38;;;1.10;;
67140;SDS011;54058;52.010;5.546;2023-02-28T12:11:51;2.50;;;1.20;;
67140;SDS011;54058;52.010;5.546;2023-02-28T12:22:43;1.90;;;1.40;;
67140;SDS011;54058;52.010;5.546;2023-02-28T12:28:16;1.75;;;1.38;;
67140;SDS011;54058;52.010;5.546;2023-02-28T12:30:54;1.60;;;1.50;;
67140;SDS011;54058;52.010;5.546;2023-02-28T12:33:24;2.45;;;1.40;;
67140;SDS011;54058;52.010;5.546;2023-02-28T12:35:58;1.73;;;1.40;;
67140;SDS011;54058;52.010;5.546;2023-02-28T12:38:29;1.88;;;1.40;;
67140;SDS011;54058;52.010;5.546;2023-02-28T12:43:33;1.27;;;1.17;;
67140;SDS011;54058;52.010;5.546;2023-02-28T12:46:06;1.95;;;1.40;;
67140;SDS011;54058;52.010;5.546;2023-02-28T12:48:43;2.08;;;1.48;;
67140;SDS011;54058;52.010;5.546;2023-02-28T12:51:11;1.35;;;1.25;;
67140;SDS011;54058;52.010;5.546;2023-02-28T12:56:13;1.75;;;1.23;;
67140;SDS011;54058;52.010;5.546;2023-02-28T12:58:54;2.40;;;1.70;;
67140;SDS011;54058;52.010;5.546;2023-02-28T13:09:51;2.30;;;1.58;;
67140;SDS011;54058;52.010;5.546;2023-02-28T13:12:18;1.67;;;1.40;;
67140;SDS011;54058;52.010;5.546;2023-02-28T13:14:45;1.40;;;1.30;;
67140;SDS011;54058;52.010;5.546;2023-02-28T13:17:12;2.38;;;1.50;;
67140;SDS011;54058;52.010;5.546;2023-02-28T13:22:19;4.15;;;1.55;;
67140;SDS011;54058;52.010;5.546;2023-02-28T13:24:57;2.17;;;1.52;;
67140;SDS011;54058;52.010;5.546;2023-02-28T13:27:36;3.83;;;1.58;;
67140;SDS011;54058;52.010;5.546;2023-02-28T13:30:58;3.03;;;1.95;;
67140;SDS011;54058;52.010;5.546;2023-02-28T13:35:44;3.55;;;1.60;;
67140;SDS011;54058;52.010;5.546;2023-02-28T13:38:32;3.42;;;2.03;;
67140;SDS011;54058;52.010;5.546;2023-02-28T13:49:25;1.95;;;1.65;;
67140;SDS011;54058;52.010;5.546;2023-02-28T14:07:49;2.08;;;1.65;;
67140;SDS011;54058;52.010;5.546;2023-02-28T14:10:31;4.68;;;1.50;;
67140;SDS011;54058;52.010;5.546;2023-02-28T14:15:57;3.00;;;1.70;;
67140;SDS011;54058;52.010;5.546;2023-02-28T14:20:54;2.45;;;1.60;;
67140;SDS011;54058;52.010;5.546;2023-02-28T14:32:10;2.20;;;1.83;;
67140;SDS011;54058;52.010;5.546;2023-02-28T14:34:54;2.63;;;1.50;;
67140;SDS011;54058;52.010;5.546;2023-02-28T14:37:44;2.42;;;1.73;;
67140;SDS011;54058;52.010;5.546;2023-02-28T14:43:16;4.10;;;1.80;;
67140;SDS011;54058;52.010;5.546;2023-02-28T14:45:51;2.30;;;1.83;;
67140;SDS011;54058;52.010;5.546;2023-02-28T14:48:23;2.15;;;1.95;;
67140;SDS011;54058;52.010;5.546;2023-02-28T14:50:57;3.53;;;2.20;;
67140;SDS011;54058;52.010;5.546;2023-02-28T14:53:28;3.75;;;1.92;;
67140;SDS011;54058;52.010;5.546;2023-02-28T14:55:59;1.83;;;1.70;;
67140;SDS011;54058;52.010;5.546;2023-02-28T14:58:26;1.75;;;1.05;;
67140;SDS011;54058;52.010;5.546;2023-02-28T15:00:56;2.58;;;1.60;;
67140;SDS011;54058;52.010;5.546;2023-02-28T15:03:28;1.80;;;1.38;;
67140;SDS011;54058;52.010;5.546;2023-02-28T15:06:04;2.92;;;1.50;;
67140;SDS011;54058;52.010;5.546;2023-02-28T15:08:37;5.90;;;1.70;;
67140;SDS011;54058;52.010;5.546;2023-02-28T15:11:12;2.35;;;1.45;;
67140;SDS011;54058;52.010;5.546;2023-02-28T15:13:40;1.40;;;1.30;;
67140;SDS011;54058;52.010;5.546;2023-02-28T15:18:57;2.20;;;1.65;;
67140;SDS011;54058;52.010;5.546;2023-02-28T15:21:25;1.50;;;1.40;;
67140;SDS011;54058;52.010;5.546;2023-02-28T15:23:58;2.50;;;1.73;;
67140;SDS011;54058;52.010;5.546;2023-02-28T15:26:30;2.78;;;1.65;;
67140;SDS011;54058;52.010;5.546;2023-02-28T15:29:00;3.15;;;1.92;;
67140;SDS011;54058;52.010;5.546;2023-02-28T15:31:31;2.03;;;1.67;;
67140;SDS011;54058;52.010;5.546;2023-02-28T15:34:02;2.35;;;1.50;;
67140;SDS011;54058;52.010;5.546;2023-02-28T15:36:30;4.18;;;1.90;;
67140;SDS011;54058;52.010;5.546;2023-02-28T15:38:58;10.23;;;1.50;;
67140;SDS011;54058;52.010;5.546;2023-02-28T15:41:36;2.92;;;1.65;;
67140;SDS011;54058;52.010;5.546;2023-02-28T15:44:25;4.60;;;1.65;;
67140;SDS011;54058;52.010;5.546;2023-02-28T15:46:58;2.22;;;1.25;;
67140;SDS011;54058;52.010;5.546;2023-02-28T15:49:27;2.10;;;1.90;;
67140;SDS011;54058;52.010;5.546;2023-02-28T15:51:55;3.85;;;1.77;;
67140;SDS011;54058;52.010;5.546;2023-02-28T15:54:26;3.40;;;1.52;;
67140;SDS011;54058;52.010;5.546;2023-02-28T15:57:01;1.88;;;1.38;;
67140;SDS011;54058;52.010;5.546;2023-02-28T15:59:34;3.55;;;1.40;;
67140;SDS011;54058;52.010;5.546;2023-02-28T16:04:57;1.23;;;1.10;;
67140;SDS011;54058;52.010;5.546;2023-02-28T16:07:42;5.75;;;1.90;;
67140;SDS011;54058;52.010;5.546;2023-02-28T16:10:09;3.80;;;1.42;;
67140;SDS011;54058;52.010;5.546;2023-02-28T16:12:37;2.33;;;2.00;;
67140;SDS011;54058;52.010;5.546;2023-02-28T16:17:54;2.40;;;1.73;;
67140;SDS011;54058;52.010;5.546;2023-02-28T16:20:24;2.87;;;2.03;;
67140;SDS011;54058;52.010;5.546;2023-02-28T16:22:53;2.50;;;1.60;;
67140;SDS011;54058;52.010;5.546;2023-02-28T16:25:20;1.75;;;1.35;;
67140;SDS011;54058;52.010;5.546;2023-02-28T16:27:53;6.20;;;2.10;;
67140;SDS011;54058;52.010;5.546;2023-02-28T16:30:21;3.93;;;1.70;;
67140;SDS011;54058;52.010;5.546;2023-02-28T16:32:49;13.93;;;4.18;;
67140;SDS011;54058;52.010;5.546;2023-02-28T16:35:16;3.70;;;2.03;;
67140;SDS011;54058;52.010;5.546;2023-02-28T16:37:43;2.53;;;2.10;;
67140;SDS011;54058;52.010;5.546;2023-02-28T16:40:13;3.72;;;2.08;;
67140;SDS011;54058;52.010;5.546;2023-02-28T16:42:45;2.58;;;1.80;;
67140;SDS011;54058;52.010;5.546;2023-02-28T16:45:19;2.95;;;2.08;;
67140;SDS011;54058;52.010;5.546;2023-02-28T16:47:49;4.90;;;2.38;;
67140;SDS011;54058;52.010;5.546;2023-02-28T16:52:42;20.60;;;4.90;;
67140;SDS011;54058;52.010;5.546;2023-02-28T16:55:07;8.00;;;3.40;;
67140;SDS011;54058;52.010;5.546;2023-02-28T16:57:33;7.70;;;2.97;;
67140;SDS011;54058;52.010;5.546;2023-02-28T16:59:59;3.70;;;2.60;;
67140;SDS011;54058;52.010;5.546;2023-02-28T17:02:24;2.53;;;2.30;;
67140;SDS011;54058;52.010;5.546;2023-02-28T17:04:50;2.53;;;1.80;;
67140;SDS011;54058;52.010;5.546;2023-02-28T17:07:17;3.08;;;2.20;;
67140;SDS011;54058;52.010;5.546;2023-02-28T17:09:43;3.47;;;2.05;;
67140;SDS011;54058;52.010;5.546;2023-02-28T17:12:09;2.80;;;2.22;;
67140;SDS011;54058;52.010;5.546;2023-02-28T17:14:36;4.15;;;2.22;;
67140;SDS011;54058;52.010;5.546;2023-02-28T17:17:02;3.95;;;2.10;;
67140;SDS011;54058;52.010;5.546;2023-02-28T17:19:29;4.03;;;2.20;;
67140;SDS011;54058;52.010;5.546;2023-02-28T17:21:55;8.70;;;2.00;;
67140;SDS011;54058;52.010;5.546;2023-02-28T17:24:21;3.78;;;2.30;;
67140;SDS011;54058;52.010;5.546;2023-02-28T17:26:46;3.67;;;2.40;;
67140;SDS011;54058;52.010;5.546;2023-02-28T17:29:19;4.93;;;3.35;;
67140;SDS011;54058;52.010;5.546;2023-02-28T17:31:46;5.53;;;3.13;;
67140;SDS011;54058;52.010;5.546;2023-02-28T17:34:12;2.67;;;1.90;;
67140;SDS011;54058;52.010;5.546;2023-02-28T17:36:43;5.45;;;2.88;;
67140;SDS011;54058;52.010;5.546;2023-02-28T17:41:38;6.95;;;3.10;;
67140;SDS011;54058;52.010;5.546;2023-02-28T17:44:06;6.47;;;3.22;;
67140;SDS011;54058;52.010;5.546;2023-02-28T17:46:31;6.30;;;3.50;;
67140;SDS011;54058;52.010;5.546;2023-02-28T17:48:57;6.13;;;3.05;;
67140;SDS011;54058;52.010;5.546;2023-02-28T17:51:23;5.90;;;3.15;;
67140;SDS011;54058;52.010;5.546;2023-02-28T17:53:49;5.28;;;2.90;;
67140;SDS011;54058;52.010;5.546;2023-02-28T17:56:19;8.35;;;2.83;;
67140;SDS011;54058;52.010;5.546;2023-02-28T17:58:47;6.80;;;2.90;;
67140;SDS011;54058;52.010;5.546;2023-02-28T18:01:13;4.25;;;2.58;;
67140;SDS011;54058;52.010;5.546;2023-02-28T18:03:38;4.20;;;3.28;;